Aviation Digital Data Service (ADDS)

Output produced by METARs form (0417 UTC 07 June 2020)
found at http://aviationweather.gov/metar/data/
 
METAR text: KGGG 070353Z AUTO 00000KT 10SM CLR 25/23 A2984 RMK AO2 SLP098 T02500228
Conditions at: KGGG (LONGVIEW , TX, US) observed 0353 UTC 07 June 2020
Temperature: 25.0°C (77°F)
Dewpoint: 22.8°C (73°F) [RH = 88%]
Pressure (altimeter): 29.84 inches Hg (1010.6 mb)
[Sea-level pressure: 1009.8 mb]
Winds: calm
Visibility: 10 or more miles (16+ km)
Ceiling: at least 12,000 feet AGL
Clouds: sky clear below 12,000 feet AGL
Weather: automated observation with no human augmentation;
there may or may not be significant weather present at this time

METAR text: KGGG 070253Z AUTO 00000KT 10SM CLR 25/23 A2984 RMK AO2 SLP096 T02500228 53009
Conditions at: KGGG (LONGVIEW , TX, US) observed 0253 UTC 07 June 2020
Temperature: 25.0°C (77°F)
Dewpoint: 22.8°C (73°F) [RH = 88%]
Pressure (altimeter): 29.84 inches Hg (1010.6 mb)
[Sea-level pressure: 1009.6 mb]
Winds: calm
Visibility: 10 or more miles (16+ km)
Ceiling: at least 12,000 feet AGL
Clouds: sky clear below 12,000 feet AGL
Weather: automated observation with no human augmentation;
there may or may not be significant weather present at this time

Forecast for: KGGG (LONGVIEW , TX, US)
Text: KGGG 062320Z 0700/0724 06006KT P6SM VCTS SCT050CB
Forecast period: 0000 to 0200 UTC 07 June 2020
Forecast type: FROM: standard forecast or significant change
Winds: from the ENE (60 degrees) at 7 MPH (6 knots; 3.1 m/s)
Visibility: 6 or more miles 10+ km)
Ceiling: at least 12,000 feet AGL
Clouds: scattered clouds at 5000 feet AGL
Weather: VCTS  (thunderstorm in vicinity)
Text: FM070200 06003KT P6SM FEW250
Forecast period: 0200 to 1500 UTC 07 June 2020
Forecast type: FROM: standard forecast or significant change
Winds: from the ENE (60 degrees) at 3 MPH (3 knots; 1.5 m/s)
Visibility: 6 or more miles 10+ km)
Ceiling: at least 12,000 feet AGL
Clouds: few clouds at 25000 feet AGL
Weather: no significant weather forecast for this period
Text: FM071500 06010KT P6SM SCT150 SCT250
Forecast period: 1500 to 1800 UTC 07 June 2020
Forecast type: FROM: standard forecast or significant change
Winds: from the ENE (60 degrees) at 12 MPH (10 knots; 5.1 m/s)
Visibility: 6 or more miles 10+ km)
Ceiling: at least 12,000 feet AGL
Clouds: scattered clouds at 15000 feet AGL
scattered clouds at 25000 feet AGL
Weather: no significant weather forecast for this period
Text: FM071800 05012G18KT P6SM OVC250
Forecast period: 1800 UTC 07 June 2020 to 0000 UTC 08 June 2020
Forecast type: FROM: standard forecast or significant change
Winds: from the NE (50 degrees) at 14 MPH (12 knots; 6.2 m/s)
gusting to 21 MPH (18 knots; 9.3 m/s)
Visibility: 6 or more miles 10+ km)
Ceiling: 25000 feet AGL
Clouds: overcast cloud deck at 25000 feet AGL
Weather: no significant weather forecast for this period